createdAt,value
2022-11-12T00:04:05.313Z,4.16
2022-11-12T00:09:50.338Z,4.04
2022-11-12T00:15:32.571Z,3.99
2022-11-12T00:21:10.425Z,3.99
2022-11-12T00:26:41.534Z,4.02
2022-11-12T00:32:12.820Z,3.98
2022-11-12T00:37:36.537Z,3.96
2022-11-12T00:43:10.388Z,3.89
2022-11-12T00:48:42.373Z,3.85
2022-11-12T00:54:19.411Z,3.77
2022-11-12T00:59:45.270Z,3.70
2022-11-12T01:05:14.763Z,3.67
2022-11-12T01:10:45.660Z,3.64
2022-11-12T01:16:30.082Z,3.60
2022-11-12T01:21:55.301Z,3.54
2022-11-12T01:27:24.057Z,3.47
2022-11-12T01:32:50.245Z,3.39
2022-11-12T01:38:19.978Z,3.30
2022-11-12T01:44:06.558Z,3.21
2022-11-12T01:49:34.177Z,3.17
2022-11-12T01:55:08.265Z,3.20
2022-11-12T02:00:30.256Z,3.22
2022-11-12T02:05:57.808Z,3.37
2022-11-12T02:11:21.387Z,3.49
2022-11-12T02:16:45.722Z,3.47
2022-11-12T02:22:11.332Z,3.43
2022-11-12T02:27:35.337Z,3.37
2022-11-12T02:32:59.152Z,3.26
2022-11-12T02:38:28.394Z,3.16
2022-11-12T02:43:56.721Z,3.08
2022-11-12T02:49:18.666Z,3.05
2022-11-12T02:54:41.042Z,3.05
2022-11-12T03:00:12.509Z,3.10
2022-11-12T03:05:37.898Z,3.17
2022-11-12T03:11:09.800Z,3.20
2022-11-12T03:16:36.635Z,3.13
2022-11-12T03:21:58.987Z,3.08
2022-11-12T03:27:22.822Z,3.02
2022-11-12T03:32:48.923Z,2.94
2022-11-12T03:38:12.529Z,2.83
2022-11-12T03:43:44.043Z,2.71
2022-11-12T03:49:12.537Z,2.59
2022-11-12T03:54:36.198Z,2.52
2022-11-12T03:59:58.832Z,2.41
2022-11-12T04:05:44.766Z,2.32
2022-11-12T04:11:19.920Z,2.24
2022-11-12T04:17:09.431Z,2.17
2022-11-12T04:22:32.544Z,2.11
2022-11-12T04:27:57.934Z,2.07
2022-11-12T04:33:29.430Z,2.05
2022-11-12T04:38:54.522Z,2.07
2022-11-12T04:44:37.637Z,2.08
2022-11-12T04:50:00.922Z,2.08
2022-11-12T04:55:23.262Z,2.15
2022-11-12T05:00:45.157Z,2.29
2022-11-12T05:06:30.337Z,2.39
2022-11-12T05:11:53.140Z,2.46
2022-11-12T05:17:15.120Z,2.50
2022-11-12T05:22:45.673Z,2.51
2022-11-12T05:28:12.741Z,2.49
2022-11-12T05:33:34.923Z,2.45
2022-11-12T05:38:57.123Z,2.42
2022-11-12T05:44:19.727Z,2.41
2022-11-12T05:49:41.574Z,2.38
2022-11-12T05:55:08.187Z,2.33
2022-11-12T06:00:31.316Z,2.41
2022-11-12T06:05:53.572Z,2.57
2022-11-12T06:11:15.904Z,2.67
2022-11-12T06:16:38.714Z,2.79
2022-11-12T06:22:00.787Z,2.86
2022-11-12T06:27:24.345Z,2.81
2022-11-12T06:32:51.139Z,2.75
2022-11-12T06:38:13.077Z,2.75
2022-11-12T06:43:35.607Z,2.81
2022-11-12T06:48:57.650Z,2.88
2022-11-12T06:54:20.189Z,2.92
2022-11-12T06:59:42.690Z,2.98
2022-11-12T07:05:05.071Z,3.12
2022-11-12T07:10:29.115Z,3.29
2022-11-12T07:15:51.461Z,3.48
2022-11-12T07:21:16.941Z,3.71
2022-11-12T07:26:48.799Z,3.90
2022-11-12T07:32:12.426Z,4.12
2022-11-12T07:37:35.634Z,4.33
2022-11-12T07:42:59.263Z,4.49
2022-11-12T07:48:21.089Z,4.61
2022-11-12T07:53:46.260Z,4.73
2022-11-12T07:59:08.294Z,4.88
2022-11-12T08:04:38.845Z,5.08
2022-11-12T08:10:01.206Z,5.29
2022-11-12T08:15:23.818Z,5.53
2022-11-12T08:20:49.221Z,5.83
2022-11-12T08:26:19.399Z,6.19
2022-11-12T08:31:41.513Z,6.50
2022-11-12T08:37:05.805Z,6.75
2022-11-12T08:42:29.027Z,7.03
2022-11-12T08:47:51.271Z,7.31
2022-11-12T08:53:14.303Z,7.57
2022-11-12T08:58:52.545Z,7.82
2022-11-12T09:04:33.570Z,8.07
2022-11-12T09:09:55.577Z,8.29
2022-11-12T09:15:36.771Z,8.47
2022-11-12T09:21:03.749Z,8.69
2022-11-12T09:26:25.754Z,8.91
2022-11-12T09:31:52.065Z,9.12
2022-11-12T09:37:18.904Z,9.33
2022-11-12T09:42:50.448Z,9.54
2022-11-12T09:48:25.841Z,9.72
2022-11-12T09:54:21.315Z,9.95
2022-11-12T09:59:52.438Z,10.15
2022-11-12T10:05:20.610Z,10.33
2022-11-12T10:10:53.417Z,10.49
2022-11-12T10:16:45.869Z,10.62
2022-11-12T10:22:41.519Z,10.79
2022-11-12T10:28:18.098Z,10.94
2022-11-12T10:33:43.442Z,11.08
2022-11-12T10:39:21.712Z,11.21
2022-11-12T10:44:56.502Z,11.34
2022-11-12T10:50:38.663Z,11.45
2022-11-12T10:56:23.213Z,11.62
2022-11-12T11:02:23.723Z,11.81
2022-11-12T11:08:00.420Z,11.92
2022-11-12T11:13:34.597Z,12.03
2022-11-12T11:19:10.745Z,12.17
2022-11-12T11:25:00.125Z,12.35
2022-11-12T11:30:51.531Z,12.45
2022-11-12T11:36:25.480Z,12.49
2022-11-12T11:42:26.694Z,12.53
2022-11-12T11:48:18.833Z,12.57
2022-11-12T11:54:16.123Z,12.62
2022-11-12T12:00:12.387Z,12.69
2022-11-12T12:05:49.191Z,12.76
2022-11-12T12:11:44.435Z,12.81
2022-11-12T12:17:44.646Z,12.84
2022-11-12T12:23:41.243Z,12.92
2022-11-12T12:29:16.258Z,12.98
2022-11-12T12:35:01.452Z,13.00
2022-11-12T12:41:28.112Z,13.02
2022-11-12T12:47:20.749Z,13.07
2022-11-12T12:53:19.439Z,13.07
2022-11-12T12:58:49.858Z,13.08
2022-11-12T13:04:23.346Z,13.04
2022-11-12T13:10:31.785Z,12.96
2022-11-12T13:16:09.792Z,12.82
2022-11-12T13:21:38.147Z,12.72
2022-11-12T13:27:02.002Z,12.59
2022-11-12T13:32:37.505Z,12.42
2022-11-12T13:38:08.463Z,12.30
2022-11-12T13:43:35.940Z,12.22
2022-11-12T13:49:10.829Z,12.14
2022-11-12T13:54:36.356Z,12.05
2022-11-12T14:00:25.623Z,12.00
2022-11-12T14:05:48.937Z,11.89
2022-11-12T14:11:24.234Z,11.75
2022-11-12T14:16:59.279Z,11.57
2022-11-12T14:22:30.333Z,11.32
2022-11-12T14:27:55.497Z,11.05
2022-11-12T14:33:19.220Z,10.78
2022-11-12T14:38:47.406Z,10.51
2022-11-12T14:44:18.143Z,10.27
2022-11-12T14:49:45.429Z,10.03
2022-11-12T14:55:14.858Z,9.77
2022-11-12T15:00:47.035Z,9.55
2022-11-12T15:06:12.450Z,9.34
2022-11-12T15:11:46.973Z,9.16
2022-11-12T15:17:27.602Z,9.02
2022-11-12T15:22:51.495Z,8.92
2022-11-12T15:28:24.623Z,8.79
2022-11-12T15:33:55.546Z,8.64
2022-11-12T15:39:30.485Z,8.46
2022-11-12T15:45:26.506Z,8.28
2022-11-12T15:50:52.914Z,8.14
2022-11-12T15:56:25.362Z,8.04
2022-11-12T16:01:54.383Z,7.99
2022-11-12T16:07:17.833Z,7.93
2022-11-12T16:12:42.386Z,7.90
2022-11-12T16:18:04.979Z,7.91
2022-11-12T16:23:27.553Z,8.03
2022-11-12T16:28:55.555Z,8.16
2022-11-12T16:34:22.048Z,8.27
2022-11-12T16:39:52.296Z,8.42
2022-11-12T16:45:23.450Z,8.60
2022-11-12T16:50:45.486Z,8.76
2022-11-12T16:56:22.361Z,8.88
2022-11-12T17:01:44.927Z,9.01
2022-11-12T17:07:07.599Z,9.09
2022-11-12T17:12:32.849Z,9.14
2022-11-12T17:17:59.971Z,9.18
2022-11-12T17:23:31.916Z,9.22
2022-11-12T17:29:01.236Z,9.28
2022-11-12T17:34:27.339Z,9.32
2022-11-12T17:39:52.603Z,9.33
2022-11-12T17:45:17.415Z,9.34
2022-11-12T17:50:41.771Z,9.35
2022-11-12T17:56:05.170Z,9.36
2022-11-12T18:01:30.406Z,9.38
2022-11-12T18:06:52.637Z,9.38
2022-11-12T18:12:20.534Z,9.39
2022-11-12T18:17:42.774Z,9.40
2022-11-12T18:23:05.783Z,9.43
2022-11-12T18:28:30.000Z,9.44
2022-11-12T18:33:53.769Z,9.45
2022-11-12T18:39:20.099Z,9.47
2022-11-12T18:44:48.534Z,9.49
2022-11-12T18:50:11.576Z,9.49
2022-11-12T18:55:36.709Z,9.48
2022-11-12T19:01:09.983Z,9.45
2022-11-12T19:06:32.059Z,9.40
2022-11-12T19:11:55.029Z,9.33
2022-11-12T19:17:20.595Z,9.27
2022-11-12T19:22:51.310Z,9.27
2022-11-12T19:28:13.301Z,9.25
2022-11-12T19:33:35.915Z,9.24
2022-11-12T19:39:02.938Z,9.26
2022-11-12T19:44:25.127Z,9.26
2022-11-12T19:50:04.511Z,9.27
2022-11-12T19:55:28.830Z,9.30
2022-11-12T20:00:52.087Z,9.34
2022-11-12T20:06:19.417Z,9.38
2022-11-12T20:11:50.926Z,9.37
2022-11-12T20:17:18.122Z,9.36
2022-11-12T20:22:54.019Z,9.35
2022-11-12T20:28:16.334Z,9.34
2022-11-12T20:33:45.925Z,9.31
2022-11-12T20:39:10.650Z,9.27
2022-11-12T20:44:41.766Z,9.26
2022-11-12T20:50:05.009Z,9.25
2022-11-12T20:55:27.636Z,9.23
2022-11-12T21:00:54.133Z,9.20
2022-11-12T21:06:22.278Z,9.20
2022-11-12T21:11:46.067Z,9.22
2022-11-12T21:17:12.829Z,9.23
2022-11-12T21:22:38.590Z,9.20
2022-11-12T21:28:08.040Z,9.21
2022-11-12T21:33:29.912Z,9.20
2022-11-12T21:38:52.069Z,9.21
2022-11-12T21:44:20.493Z,9.22
2022-11-12T21:49:42.536Z,9.21
2022-11-12T21:55:11.152Z,9.21
2022-11-12T22:00:42.767Z,9.22
2022-11-12T22:06:07.155Z,9.24
2022-11-12T22:11:30.198Z,9.24
2022-11-12T22:16:52.272Z,9.23
2022-11-12T22:22:14.184Z,9.20
2022-11-12T22:27:37.675Z,9.17
2022-11-12T22:33:00.201Z,9.17
2022-11-12T22:38:22.577Z,9.18
2022-11-12T22:43:53.905Z,9.16
2022-11-12T22:49:20.612Z,9.11
2022-11-12T22:54:54.899Z,9.12
2022-11-12T23:00:22.024Z,9.09
2022-11-12T23:05:54.642Z,9.09
2022-11-12T23:11:19.702Z,9.05
2022-11-12T23:16:50.896Z,8.97
2022-11-12T23:22:16.496Z,8.89
2022-11-12T23:27:38.656Z,8.82
2022-11-12T23:33:03.109Z,8.76
2022-11-12T23:38:27.007Z,8.73
2022-11-12T23:43:53.175Z,8.70
2022-11-12T23:49:15.340Z,8.67
2022-11-12T23:54:37.705Z,8.66
